ETSI 192320Z AUTO VRB03KT 5000 // ////// 18/14 Q1023 /// ETSI 192220Z AUTO 34006KT 5000 // ////// 20/12 Q1025 /// ETSI 192120Z AUTO 36006KT 5000 // ////// 21/12 Q1024 /// ETSI 192020Z AUTO 17004KT 5000 // ////// 20/15 Q1022 /// ETSI 191920Z AUTO 29008KT 4200 // ////// 25/13 Q1021 /// ETSI 191820Z AUTO 17002KT 5000 // ////// 26/15 Q1020 /// ETSI 191720Z VRB02KT 9999 SCT300 BKN360 28/12 Q1020 BLU+ ETSI 191620Z VRB03KT 9999 BKN300 29/12 Q1020 BLU+ ETSI 191520Z VRB03KT 9999 BKN320 29/12 Q1020 BLU+ ETSI 191420Z 32002KT 9999 BKN320 29/11 Q1020 BLU+ ETSI 191345Z 25003KT 9999 FEW050 BKN320 29/11 Q1021 BLU+FCST CNL ETSI 191320Z 18003KT 9999 FEW050 BKN320 28/11 Q1021 BLU+BLU+ ETSI 191220Z 22004KT 9999 BKN340 27/11 Q1021 BLU+BLU+ ETSI 191120Z 16003KT 9999 BKN340 26/11 Q1022 BLU+BLU+ ETSI 191020Z 22002KT 9999 BKN300 24/10 Q1022 BLU+BLU+ ETSI 190920Z 09003KT 9999 BKN300 22/08 Q1023 BLU+BLU+ ETSI 190820Z 10004KT 9999 BKN300 19/07 Q1023 BLU+BLU+ ETSI 190720Z 09003KT 9999 BKN340 17/05 Q1023 BLU+BLU+ ETSI 190620Z VRB03KT 9999 SCT340 15/04 Q1023 BLU+BLU+ ETSI 190520Z 08003KT 9999 BKN340 13/04 Q1023 BLU+BLU+ ETSI 190420Z AUTO 08004KT 6000 // ////// 11/05 Q1023 /// ETSI 190320Z AUTO 07005KT 6000 // ////// 11/05 Q1023 /// ETSI 190220Z AUTO 07003KT 6000 // ////// 12/04 Q1023 /// ETSI 190120Z AUTO 07005KT 6000 // ////// 13/04 Q1023 /// ETSI 190020Z AUTO 07004KT 7000 // ////// 14/04 Q1023 /// ETSI 182320Z AUTO 07003KT 7000 // ////// 16/05 Q1023 /// ETSI 182220Z AUTO 08003KT 6000 // ////// 16/06 Q1024 /// ETSI 182120Z AUTO VRB03KT 7000 // ////// 17/07 Q1024 /// ETSI 182020Z AUTO 10002KT 6000 // ////// 18/07 Q1024 /// ETSI 181920Z 11003KT 9999 SCT380 20/07 Q1023 BLU+ ETSI 181820Z 11004KT 9999 SCT360 22/08 Q1023 BLU+ ETSI 181720Z 12005KT 9999 SCT350 24/07 Q1023 BLU+ ETSI 181620Z 11005KT 9999 FEW060 SCT350 24/09 Q1023 BLU+ ETSI 181520Z 13005KT 9999 FEW055 SCT360 25/10 Q1023 BLU+ ETSI 181420Z 12005KT 9999 FEW060 SCT360 25/10 Q1023 BLU+ ETSI 181400Z 09006KT 9999 FEW060 SCT360 25/10 Q1023 BLU+FCST CNL ETSI 181320Z 06006KT 9999 FEW055 SCT360 25/10 Q1024 BLU+BLU+ ETSI 181220Z 13005KT 9999 FEW050 SCT360 25/10 Q1024 BLU+BLU+

METAR Messwerte "INGOLSTADT(GER-M" ETSI

Zurück zur Übersicht

Ortsname
Ländercode / m ü. NN
Zeit Temperatur Taupunkt Rel.
Luftfeuchte
Luftdruck:
Altimeter
NN
Station
Wind in Beaufort
(Knoten)
Sichtweite
(Meter)
Wolken
(Meter über Grund)
Wettererscheinung
INGOLSTADT(GER-M
DE 366
Fr 20.05. 01:20181477 %1023
1023
979
Uml 2 (3)5000  
INGOLSTADT(GER-M
DE 366
Fr 20.05. 00:20201260 %1025
1024
981
NNW 2 (6)5000  
INGOLSTADT(GER-M
DE 366
Do 19.05. 23:20211256 %1024
1023
980
N 2 (6)5000  
INGOLSTADT(GER-M
DE 366
Do 19.05. 22:20201573 %1022
1021
978
S 2 (4)5000  
INGOLSTADT(GER-M
DE 366
Do 19.05. 21:20251347 %1021
1020
978
WNW 3 (8)4200  
INGOLSTADT(GER-M
DE 366
Do 19.05. 20:20261551 %1020
1018
977
S 1 (2)5000  
INGOLSTADT(GER-M
DE 366
Do 19.05. 19:20281237 %1020
1018
977
Uml 1 (2)>= 10000Stark bewölkt (11000)
Wolkig (9100)
 
INGOLSTADT(GER-M
DE 366
Do 19.05. 18:20291235 %1020
1018
977
Uml 2 (3)>= 10000Stark bewölkt (9100) 
INGOLSTADT(GER-M
DE 366
Do 19.05. 17:20291235 %1020
1018
977
Uml 2 (3)>= 10000Stark bewölkt (9800) 
INGOLSTADT(GER-M
DE 366
Do 19.05. 16:20291133 %1020
1018
977
NW 1 (2)>= 10000Stark bewölkt (9800) 
INGOLSTADT(GER-M
DE 366
Do 19.05. 15:45291133 %1021
1019
978
WSW 2 (3)>= 10000Stark bewölkt (9800)
Leicht bewölkt (1500)
 
INGOLSTADT(GER-M
DE 366
Do 19.05. 15:20281135 %1021
1019
978
S 2 (3)>= 10000Stark bewölkt (9800)
Leicht bewölkt (1500)
 
INGOLSTADT(GER-M
DE 366
Do 19.05. 14:20271137 %1021
1019
978
SW 2 (4)>= 10000Stark bewölkt (10000) 
INGOLSTADT(GER-M
DE 366
Do 19.05. 13:20261139 %1022
1020
978
SSO 2 (3)>= 10000Stark bewölkt (10000) 
INGOLSTADT(GER-M
DE 366
Do 19.05. 12:20241041 %1022
1021
978
SW 1 (2)>= 10000Stark bewölkt (9100) 
INGOLSTADT(GER-M
DE 366
Do 19.05. 11:2022841 %1023
1022
979
O 2 (3)>= 10000Stark bewölkt (9100) 
INGOLSTADT(GER-M
DE 366
Do 19.05. 10:2019746 %1023
1022
979
O 2 (4)>= 10000Stark bewölkt (9100) 
INGOLSTADT(GER-M
DE 366
Do 19.05. 09:2017545 %1023
1023
979
O 2 (3)>= 10000Stark bewölkt (10000) 
INGOLSTADT(GER-M
DE 366
Do 19.05. 08:2015448 %1023
1023
979
Uml 2 (3)>= 10000Wolkig (10000) 
INGOLSTADT(GER-M
DE 366
Do 19.05. 07:2013454 %1023
1023
979
O 2 (3)>= 10000Stark bewölkt (10000) 
INGOLSTADT(GER-M
DE 366
Do 19.05. 06:2011566 %1023
1024
979
O 2 (4)6000  
INGOLSTADT(GER-M
DE 366
Do 19.05. 05:2011566 %1023
1024
979
ONO 2 (5)6000  
INGOLSTADT(GER-M
DE 366
Do 19.05. 04:2012458 %1023
1024
979
ONO 2 (3)6000  
INGOLSTADT(GER-M
DE 366
Do 19.05. 03:2013454 %1023
1023
979
ONO 2 (5)6000  
INGOLSTADT(GER-M
DE 366
Do 19.05. 02:2014451 %1023
1023
979
ONO 2 (4)7000  
INGOLSTADT(GER-M
DE 366
Do 19.05. 01:2016548 %1023
1023
979
ONO 2 (3)7000  
INGOLSTADT(GER-M
DE 366
Do 19.05. 00:2016651 %1024
1024
980
O 2 (3)6000  
INGOLSTADT(GER-M
DE 366
Mi 18.05. 23:2017752 %1024
1024
980
Uml 2 (3)7000  
INGOLSTADT(GER-M
DE 366
Mi 18.05. 22:2018749 %1024
1024
980
O 1 (2)6000  
INGOLSTADT(GER-M
DE 366
Mi 18.05. 21:2020743 %1023
1022
979
OSO 2 (3)>= 10000Wolkig (12000) 
INGOLSTADT(GER-M
DE 366
Mi 18.05. 20:2022841 %1023
1022
979
OSO 2 (4)>= 10000Wolkig (11000) 
INGOLSTADT(GER-M
DE 366
Mi 18.05. 19:2024734 %1023
1022
979
OSO 2 (5)>= 10000Wolkig (11000) 
INGOLSTADT(GER-M
DE 366
Mi 18.05. 18:2024938 %1023
1022
979
OSO 2 (5)>= 10000Wolkig (11000)
Leicht bewölkt (1800)
 
INGOLSTADT(GER-M
DE 366
Mi 18.05. 17:20251039 %1023
1022
979
SO 2 (5)>= 10000Wolkig (11000)
Leicht bewölkt (1700)
 
INGOLSTADT(GER-M
DE 366
Mi 18.05. 16:20251039 %1023
1022
979
OSO 2 (5)>= 10000Wolkig (11000)
Leicht bewölkt (1800)
 
INGOLSTADT(GER-M
DE 366
Mi 18.05. 16:00251039 %1023
1022
979
O 2 (6)>= 10000Wolkig (11000)
Leicht bewölkt (1800)
 
INGOLSTADT(GER-M
DE 366
Mi 18.05. 15:20251039 %1024
1023
980
ONO 2 (6)>= 10000Wolkig (11000)
Leicht bewölkt (1700)
 
INGOLSTADT(GER-M
DE 366
Mi 18.05. 14:20251039 %1024
1023
980
SO 2 (5)>= 10000Wolkig (11000)
Leicht bewölkt (1500)
 

Altimeter: Einstellung am Altimeter (Höhenmesser), die Höhe 0 muss auf diesen Luftdruckwert zeigen, damit das Gerät die Stationshöhe richtig anzeigt.

NN: Luftdruck reduziert auf "Normal Null", auf Meereshöhe, dieser von der Temperatur abhängige Wert wird bisweilen unkorrekt einfach als "Luftdruck" bezeichnet. Eigentlich nur eine fiktive Größe, die es erlaubt, Stationen auf unterschiedlichen Höhen miteinander zu vergleichen.

Station: Realer Luftdruck an der Station.